createdAt,value
2022-08-16T00:01:06.480Z,95704.66
2022-08-16T00:06:11.711Z,95704.56
2022-08-16T00:11:19.380Z,95692.44
2022-08-16T00:17:05.735Z,95687.63
2022-08-16T00:21:52.204Z,95697.91
2022-08-16T00:26:57.340Z,95713.19
2022-08-16T00:32:06.523Z,95703.06
2022-08-16T00:37:11.571Z,95703.34
2022-08-16T00:42:30.783Z,95690.97
2022-08-16T00:47:49.009Z,95708.44
2022-08-16T00:52:53.686Z,95704.28
2022-08-16T00:58:00.946Z,95693.75
2022-08-16T01:03:11.740Z,95702.31
2022-08-16T01:08:36.041Z,95699.56
2022-08-16T01:13:41.308Z,95698.16
2022-08-16T01:18:53.030Z,95694.13
2022-08-16T01:24:52.017Z,95683.38
2022-08-16T01:30:19.412Z,95673.56
2022-08-16T01:35:30.941Z,95690.81
2022-08-16T01:40:38.919Z,95682.84
2022-08-16T01:45:44.554Z,95702.09
2022-08-16T01:51:09.519Z,95688.63
2022-08-16T01:56:24.972Z,95694.06
2022-08-16T02:01:31.995Z,95697.25
2022-08-16T02:06:38.796Z,95669.41
2022-08-16T02:11:48.279Z,95672.50
2022-08-16T02:17:05.681Z,95654.50
2022-08-16T02:22:34.527Z,95671.66
2022-08-16T02:27:37.488Z,95668.72
2022-08-16T02:32:51.100Z,95657.28
2022-08-16T02:37:56.690Z,95665.97
2022-08-16T02:43:05.743Z,95656.59
2022-08-16T02:48:28.289Z,95647.25
2022-08-16T02:53:36.067Z,95674.25
2022-08-16T02:58:44.196Z,95660.47
2022-08-16T03:04:29.278Z,95663.47
2022-08-16T03:09:16.249Z,95644.72
2022-08-16T03:14:21.425Z,95665.13
2022-08-16T03:19:47.607Z,95666.84
2022-08-16T03:24:57.534Z,95683.38
2022-08-16T03:30:16.498Z,95686.84
2022-08-16T03:35:32.784Z,95678.16
2022-08-16T03:40:40.863Z,95679.75
2022-08-16T03:45:45.709Z,95694.69
2022-08-16T03:51:00.195Z,95704.34
2022-08-16T03:56:05.403Z,95701.31
2022-08-16T04:01:11.808Z,95692.25
2022-08-16T04:06:17.073Z,95686.72
2022-08-16T04:11:23.674Z,95699.84
2022-08-16T04:16:29.316Z,95684.06
2022-08-16T04:21:47.355Z,95688.38
2022-08-16T04:26:51.327Z,95692.22
2022-08-16T04:31:59.003Z,95703.31
2022-08-16T04:37:04.525Z,95706.13
2022-08-16T04:42:11.406Z,95692.50
2022-08-16T04:47:21.528Z,95697.00
2022-08-16T04:52:35.138Z,95708.06
2022-08-16T04:57:41.414Z,95722.44
2022-08-16T05:02:45.504Z,95718.38
2022-08-16T05:07:58.334Z,95737.81
2022-08-16T05:13:06.135Z,95721.09
2022-08-16T05:18:15.403Z,95737.75
2022-08-16T05:23:22.403Z,95734.75
2022-08-16T05:28:31.063Z,95726.38
2022-08-16T05:33:43.290Z,95722.09
2022-08-16T05:38:48.171Z,95737.53
2022-08-16T05:43:52.531Z,95724.16
2022-08-16T05:49:09.261Z,95742.22
2022-08-16T05:54:24.978Z,95730.03
2022-08-16T05:59:30.656Z,95718.66
2022-08-16T06:04:37.593Z,95720.81
2022-08-16T06:09:44.654Z,95744.00
2022-08-16T06:14:51.372Z,95749.13
2022-08-16T06:19:58.199Z,95737.16
2022-08-16T06:25:02.510Z,95743.53
2022-08-16T06:30:11.477Z,95743.84
2022-08-16T06:35:16.766Z,95737.22
2022-08-16T06:40:22.681Z,95748.19
2022-08-16T06:45:43.197Z,95747.91
2022-08-16T06:50:49.554Z,95763.34
2022-08-16T06:55:59.901Z,95753.31
2022-08-16T07:01:03.724Z,95769.75
2022-08-16T07:06:14.245Z,95756.22
2022-08-16T07:11:47.900Z,95763.84
2022-08-16T07:16:47.996Z,95761.72
2022-08-16T07:21:59.481Z,95771.53
2022-08-16T07:27:08.529Z,95747.06
2022-08-16T07:32:14.941Z,95754.53
2022-08-16T07:37:22.366Z,95735.03
2022-08-16T07:42:35.230Z,95733.19
2022-08-16T07:47:39.325Z,95753.75
2022-08-16T07:52:46.999Z,95731.94
2022-08-16T07:57:59.853Z,95755.75
2022-08-16T08:03:08.477Z,95750.59
2022-08-16T08:08:50.614Z,95747.25
2022-08-16T08:13:41.692Z,95766.94
2022-08-16T08:18:49.971Z,95754.34
2022-08-16T08:23:59.123Z,95760.38
2022-08-16T08:29:03.364Z,95757.41
2022-08-16T08:34:12.815Z,95764.38
2022-08-16T08:39:16.447Z,95777.03
2022-08-16T08:44:57.154Z,95720.03
2022-08-16T08:50:33.652Z,95748.03
2022-08-16T08:55:59.125Z,95771.06
2022-08-16T09:01:36.788Z,95760.72
2022-08-16T09:07:31.391Z,95765.38
2022-08-16T09:13:02.912Z,95765.44
2022-08-16T09:18:25.034Z,95758.41
2022-08-16T09:24:52.184Z,95762.16
2022-08-16T09:30:33.711Z,95761.53
2022-08-16T09:35:57.909Z,95740.88
2022-08-16T09:41:29.981Z,95732.50
2022-08-16T09:46:50.044Z,95728.13
2022-08-16T09:52:11.278Z,95738.50
2022-08-16T09:57:52.749Z,95758.06
2022-08-16T10:03:36.802Z,95757.25
2022-08-16T10:20:21.398Z,95734.78
2022-08-16T10:27:00.534Z,95733.81
2022-08-16T10:30:56.536Z,95722.09
2022-08-16T10:36:08.310Z,95714.25
2022-08-16T10:41:16.097Z,95709.56
2022-08-16T10:46:39.769Z,95711.28
2022-08-16T10:52:03.157Z,95712.50
2022-08-16T10:57:12.203Z,95720.25
2022-08-16T11:02:57.835Z,95717.34
2022-08-16T11:07:43.067Z,95708.56
2022-08-16T11:12:48.194Z,95731.84
2022-08-16T11:23:21.732Z,95717.94
2022-08-16T11:33:52.796Z,95712.53
2022-08-16T11:39:01.581Z,95723.13
2022-08-16T11:44:08.371Z,95701.13
2022-08-16T11:49:17.700Z,95702.03
2022-08-16T11:54:25.070Z,95717.38
2022-08-16T11:59:39.897Z,95690.22
2022-08-16T12:04:45.930Z,95694.75
2022-08-16T12:09:56.563Z,95704.81
2022-08-16T12:15:00.606Z,95690.25
2022-08-16T12:20:48.431Z,95693.09
2022-08-16T12:26:10.839Z,95681.53
2022-08-16T12:31:23.097Z,95649.31
2022-08-16T12:36:39.525Z,95689.97
2022-08-16T12:42:20.554Z,95665.25
2022-08-16T12:48:33.221Z,95688.78
2022-08-16T12:54:11.292Z,95662.88
2022-08-16T13:05:39.796Z,95678.34
2022-08-16T13:16:32.696Z,95679.31
2022-08-16T13:21:51.873Z,95633.03
2022-08-16T13:27:34.910Z,95626.50
2022-08-16T13:33:13.180Z,95620.59
2022-08-16T13:38:43.041Z,95637.75
2022-08-16T13:44:15.610Z,95658.88
2022-08-16T13:49:32.129Z,95648.97
2022-08-16T13:54:56.000Z,95628.13
2022-08-16T14:00:33.689Z,95641.31
2022-08-16T14:05:54.865Z,95615.03
2022-08-16T14:11:11.780Z,95626.28
2022-08-16T14:16:34.254Z,95643.88
2022-08-16T14:22:30.831Z,95620.47
2022-08-16T14:28:20.583Z,95586.53
2022-08-16T14:33:52.493Z,95637.78
2022-08-16T14:39:20.574Z,95619.25
2022-08-16T14:45:10.045Z,95585.53
2022-08-16T14:56:56.912Z,95581.06
2022-08-16T15:02:49.671Z,95567.44
2022-08-16T15:08:35.122Z,95576.63
2022-08-16T15:14:08.091Z,95586.13
2022-08-16T15:19:23.555Z,95588.53
2022-08-16T15:24:50.138Z,95600.28
2022-08-16T15:30:57.126Z,95561.81
2022-08-16T15:36:09.695Z,95567.91
2022-08-16T15:41:39.100Z,95619.47
2022-08-16T15:46:58.526Z,95576.63
2022-08-16T15:52:33.228Z,95609.94
2022-08-16T15:58:38.506Z,95607.91
2022-08-16T16:03:34.965Z,95599.75
2022-08-16T16:09:36.636Z,95616.91
2022-08-16T16:33:45.940Z,95594.28
2022-08-16T16:39:32.593Z,95587.31
2022-08-16T16:45:18.348Z,95576.41
2022-08-16T16:51:09.827Z,95560.09
2022-08-16T17:03:30.995Z,95578.69
2022-08-16T17:09:34.802Z,95571.53
2022-08-16T17:15:39.776Z,95573.31
2022-08-16T17:21:01.289Z,95618.03
2022-08-16T17:26:30.983Z,95595.09
2022-08-16T17:37:42.263Z,95573.28
2022-08-16T17:39:28.819Z,95614.53
2022-08-16T17:43:11.400Z,95601.59
2022-08-16T17:54:42.625Z,95606.81
2022-08-16T18:05:58.955Z,95595.78
2022-08-16T18:17:53.136Z,95612.56
2022-08-16T18:23:13.965Z,95647.63
2022-08-16T18:28:44.657Z,95642.25
2022-08-16T18:33:58.865Z,95598.47
2022-08-16T18:45:07.364Z,95632.22
2022-08-16T18:55:45.535Z,95603.34
2022-08-16T19:01:06.048Z,95664.53
2022-08-16T19:06:38.062Z,95622.53
2022-08-16T19:12:03.055Z,95667.00
2022-08-16T19:17:25.601Z,95681.94
2022-08-16T19:28:49.257Z,95654.81
2022-08-16T19:34:00.749Z,95673.44
2022-08-16T19:40:37.315Z,95703.91
2022-08-16T19:45:54.624Z,95691.31
2022-08-16T19:51:25.681Z,95700.03
2022-08-16T19:56:34.904Z,95703.25
2022-08-16T20:02:02.180Z,95713.00
2022-08-16T20:08:03.857Z,95717.84
2022-08-16T20:20:07.568Z,95709.06
2022-08-16T20:25:29.811Z,95671.09
2022-08-16T20:37:03.287Z,95722.28
2022-08-16T20:42:28.600Z,95717.53
2022-08-16T20:48:11.292Z,95740.88
2022-08-16T20:53:46.740Z,95702.56
2022-08-16T21:05:56.305Z,95751.63
2022-08-16T21:29:55.966Z,95742.66
2022-08-16T21:41:58.750Z,95738.00
2022-08-16T22:00:26.841Z,95715.13
2022-08-16T22:06:20.920Z,95723.22
2022-08-16T22:18:17.565Z,95750.16
2022-08-16T22:30:06.308Z,95725.22
2022-08-16T22:35:58.285Z,95752.47
2022-08-16T22:55:31.853Z,95718.63
2022-08-16T23:17:06.312Z,95693.72
2022-08-16T23:28:13.794Z,95685.63
2022-08-16T23:33:29.992Z,95680.88
2022-08-16T23:50:38.637Z,95703.00
